Airfield :
LOGIN :

Register | Disclaimer

   EN    FR    IT 

 










Legend :    VFR   Marginal VFR   IFR   Intensive IFR   Very Intensive IFR
Visi :
Ceiling :
>= 8 km
>= 3000ft
5 to 8 km
1000 to 3000 ft
1500m to 5 km
500 to 1000 ft
800 to 1500m
200 to 500 ft
< 800m
< 200 ft
Symbols :   Thunderstorms  Fog  Heavy snow  Heavy precipitations  Wind > 20 kt
SIGMETs :     Misc.  Thunderstorms  Icing  Turbulence  Mountain Waves  Volcanic Ashes






- Airport Elevation : 1906 ft
- IATA code : INN


LOWI - Innsbruck

CURRENT METAR :
  • 290620Z VRB01KT 5000 -RA FEW004 SCT008 BKN014 03/03 Q1015 TEMPO 4000 -RA BR BKN008

EXPIRED METARs :
  • 290550Z VRB01KT 5000 -RA FEW004 BKN014 04/04 Q1015 TEMPO 4000 -RA BR
  • 290520Z VRB01KT 5000 -RA FEW006 BKN014 03/03 Q1015 TEMPO 4000 -RA BR BKN016
  • 290450Z VRB01KT 5000 -RADZ FEW005 BKN017 04/04 Q1014 TEMPO 4000 -RA BR BKN012
  • 290420Z AUTO VRB01KT 6000 -RA FEW006 SCT010 BKN017 04/04 Q1014

TAF TAF LOWI
Valid from the 29 at 06:00 until the 30 at 06:00 UTC


290515Z 2906/3006 VRB03KT 7000 -RA BKN020 TX04/2908Z TN03/3006Z
TEMPO 2906/2908 4000 BKN008
TEMPO 2908/2915 BKN013
TEMPO 2915/2922 BKN008
BECMG 2922/2924 NSW
TEMPO 2922/3006 1500 BCFG BKN004



MET'MAP, your aeronautical weather chart ! - Copyright ORBIFLY December 2007 - Disclaimer

ORBIFLY MET'MAP TEAM :

Programming & Development : Alexandra Zaïnal
Original concept : Baudouin d'Aumeries
Technical & hardware support : Manuel Goepfert
Assistance : Marc-Olivier Méhu




SOURCES & CREDITS :

   NOAA